createdAt,value
2022-09-09T00:07:12.058Z,17.19
2022-09-09T00:12:56.801Z,17.27
2022-09-09T00:18:38.145Z,17.49
2022-09-09T00:21:28.155Z,17.39
2022-09-09T00:27:08.522Z,17.42
2022-09-09T00:29:59.609Z,17.37
2022-09-09T00:35:32.164Z,17.44
2022-09-09T00:41:11.260Z,17.51
2022-09-09T00:44:02.581Z,17.50
2022-09-09T00:50:09.710Z,17.58
2022-09-09T00:53:03.263Z,17.52
2022-09-09T00:58:42.793Z,17.54
2022-09-09T01:07:03.156Z,17.51
2022-09-09T01:12:47.658Z,17.52
2022-09-09T01:15:37.480Z,17.49
2022-09-09T01:21:12.039Z,17.34
2022-09-09T01:27:00.716Z,17.34
2022-09-09T01:32:47.309Z,17.18
2022-09-09T01:35:43.523Z,17.02
2022-09-09T01:38:36.051Z,16.89
2022-09-09T01:41:24.361Z,16.72
2022-09-09T01:44:13.487Z,16.60
2022-09-09T01:47:01.987Z,16.70
2022-09-09T01:49:49.877Z,16.70
2022-09-09T01:58:20.749Z,16.54
2022-09-09T02:01:12.336Z,16.29
2022-09-09T02:06:52.944Z,16.31
2022-09-09T02:15:22.245Z,16.49
2022-09-09T02:18:12.090Z,16.57
2022-09-09T02:21:01.740Z,16.56
2022-09-09T02:23:53.857Z,16.61
2022-09-09T02:29:24.845Z,16.81
2022-09-09T02:35:06.190Z,16.68
2022-09-09T02:40:44.577Z,16.85
2022-09-09T02:43:34.960Z,16.81
2022-09-09T02:49:21.897Z,16.75
2022-09-09T02:55:01.903Z,16.77
2022-09-09T02:57:50.734Z,16.78
2022-09-09T03:00:41.073Z,16.77
2022-09-09T03:09:05.853Z,16.85
2022-09-09T03:14:41.916Z,16.96
2022-09-09T03:23:00.134Z,17.11
2022-09-09T03:28:36.575Z,16.97
2022-09-09T03:34:12.917Z,16.75
2022-09-09T03:39:50.308Z,16.74
2022-09-09T03:45:20.397Z,16.76
2022-09-09T03:50:56.916Z,16.70
2022-09-09T03:56:28.583Z,16.59
2022-09-09T03:59:19.174Z,16.49
2022-09-09T04:04:51.239Z,16.59
2022-09-09T04:10:27.089Z,16.53
2022-09-09T04:16:02.157Z,16.59
2022-09-09T04:21:30.603Z,16.51
2022-09-09T04:27:10.030Z,16.33
2022-09-09T04:32:44.653Z,16.44
2022-09-09T04:38:20.605Z,16.33
2022-09-09T04:49:32.699Z,16.22
2022-09-09T04:55:08.345Z,16.44
2022-09-09T05:01:07.160Z,16.15
2022-09-09T05:03:56.792Z,16.19
2022-09-09T05:06:44.939Z,16.27
2022-09-09T05:12:27.168Z,16.25
2022-09-09T05:15:18.698Z,16.19
2022-09-09T05:20:56.642Z,16.34
2022-09-09T05:23:54.529Z,16.36
2022-09-09T05:29:45.502Z,16.42
2022-09-09T05:35:17.208Z,16.47
2022-09-09T05:40:53.765Z,16.36
2022-09-09T05:46:30.122Z,16.36
2022-09-09T05:49:20.710Z,16.42
2022-09-09T05:55:00.649Z,16.46
2022-09-09T05:57:52.773Z,16.45
2022-09-09T06:03:43.839Z,16.58
2022-09-09T06:12:10.968Z,16.57
2022-09-09T06:14:59.668Z,16.61
2022-09-09T06:20:29.769Z,16.75
2022-09-09T06:26:09.031Z,16.83
2022-09-09T06:28:58.783Z,16.86
2022-09-09T06:34:29.555Z,17.22
2022-09-09T06:37:19.641Z,17.22
2022-09-09T06:42:51.018Z,17.47
2022-09-09T06:45:39.958Z,17.52
2022-09-09T06:51:17.328Z,17.62
2022-09-09T06:56:51.619Z,17.80
2022-09-09T07:02:40.801Z,18.14
2022-09-09T07:08:18.295Z,18.39
2022-09-09T07:13:55.066Z,18.34
2022-09-09T07:19:31.599Z,18.54
2022-09-09T07:25:10.843Z,18.97
2022-09-09T07:27:59.612Z,18.88
2022-09-09T07:30:56.072Z,18.88
2022-09-09T07:33:44.487Z,19.05
2022-09-09T07:39:19.348Z,20.07
2022-09-09T07:44:48.427Z,20.62
2022-09-09T07:47:37.281Z,20.63
2022-09-09T07:53:14.664Z,20.99
2022-09-09T07:56:06.616Z,20.67
2022-09-09T07:58:56.499Z,20.15
2022-09-09T08:01:48.507Z,19.93
2022-09-09T08:04:36.497Z,19.82
2022-09-09T08:07:25.269Z,19.38
2022-09-09T08:13:16.891Z,19.52
2022-09-09T08:18:39.138Z,19.43
2022-09-09T08:24:26.885Z,20.00
2022-09-09T08:30:01.827Z,20.90
2022-09-09T08:32:53.854Z,21.44
2022-09-09T08:38:27.117Z,21.04
2022-09-09T08:44:12.363Z,20.81
2022-09-09T08:50:00.572Z,21.14
2022-09-09T08:55:43.824Z,20.65
2022-09-09T08:58:35.763Z,20.38
2022-09-09T09:04:54.264Z,21.37
2022-09-09T09:07:50.253Z,21.49
2022-09-09T09:13:51.589Z,21.44
2022-09-09T09:22:18.233Z,22.16
2022-09-09T09:28:12.908Z,21.16
2022-09-09T09:33:51.223Z,20.51
2022-09-09T09:45:21.239Z,20.51
2022-09-09T09:50:53.946Z,20.46
2022-09-09T09:56:34.078Z,20.61
2022-09-09T10:02:18.551Z,21.12
2022-09-09T10:08:06.841Z,21.24
2022-09-09T10:13:55.533Z,21.45
2022-09-09T10:19:35.361Z,21.19
2022-09-09T10:25:32.844Z,21.13
2022-09-09T10:28:32.526Z,21.53
2022-09-09T10:37:04.693Z,22.20
2022-09-09T10:42:44.042Z,21.92
2022-09-09T10:48:46.564Z,21.24
2022-09-09T10:54:34.054Z,20.79
2022-09-09T11:00:21.178Z,20.32
2022-09-09T11:06:00.150Z,20.84
2022-09-09T11:08:52.672Z,21.34
2022-09-09T11:11:43.564Z,21.69
2022-09-09T11:17:22.463Z,21.34
2022-09-09T11:23:02.846Z,21.92
2022-09-09T11:25:53.269Z,21.86
2022-09-09T11:28:48.775Z,22.08
2022-09-09T11:31:48.578Z,21.85
2022-09-09T11:38:05.940Z,22.27
2022-09-09T11:41:00.419Z,22.19
2022-09-09T11:43:49.784Z,22.27
2022-09-09T11:49:32.637Z,22.91
2022-09-09T11:58:18.980Z,22.93
2022-09-09T12:04:09.599Z,22.45
2022-09-09T12:07:00.557Z,22.49
2022-09-09T12:12:43.022Z,22.60
2022-09-09T12:15:30.875Z,22.55
2022-09-09T12:18:24.305Z,22.74
2022-09-09T12:26:54.799Z,21.78
2022-09-09T12:32:31.357Z,21.80
2022-09-09T12:38:10.345Z,21.70
2022-09-09T12:40:59.773Z,21.66
2022-09-09T12:46:33.439Z,22.37
2022-09-09T12:49:35.408Z,22.52
2022-09-09T12:55:07.289Z,22.31
2022-09-09T12:57:56.418Z,22.07
2022-09-09T13:00:52.136Z,22.27
2022-09-09T13:03:46.522Z,22.05
2022-09-09T13:06:35.579Z,22.00
2022-09-09T13:09:25.524Z,22.15
2022-09-09T13:15:02.718Z,22.67
2022-09-09T13:26:26.492Z,22.89
2022-09-09T13:29:20.104Z,22.38
2022-09-09T13:34:58.171Z,22.08
2022-09-09T13:40:31.229Z,22.11
2022-09-09T13:46:02.238Z,21.95
2022-09-09T13:48:57.655Z,21.92
2022-09-09T13:54:36.660Z,22.21
2022-09-09T13:57:26.892Z,22.21
2022-09-09T14:00:17.173Z,22.43
2022-09-09T14:03:05.419Z,22.75
2022-09-09T14:05:55.060Z,22.98
2022-09-09T14:08:43.064Z,23.02
2022-09-09T14:11:31.224Z,23.39
2022-09-09T14:17:04.243Z,23.55
2022-09-09T14:19:51.391Z,23.31
2022-09-09T14:22:40.762Z,23.55
2022-09-09T14:31:06.473Z,23.22
2022-09-09T14:36:45.590Z,23.25
2022-09-09T14:42:16.342Z,22.98
2022-09-09T14:45:04.368Z,22.80
2022-09-09T14:50:35.720Z,22.84
2022-09-09T14:56:25.003Z,22.68
2022-09-09T15:01:55.848Z,22.72
2022-09-09T15:07:33.430Z,22.59
2022-09-09T15:10:21.431Z,22.73
2022-09-09T15:15:55.311Z,22.38
2022-09-09T15:21:30.889Z,22.41
2022-09-09T15:24:24.121Z,22.45
2022-09-09T15:29:59.663Z,22.55
2022-09-09T15:35:30.339Z,22.82
2022-09-09T15:38:21.013Z,22.79
2022-09-09T15:41:09.131Z,22.83
2022-09-09T15:43:58.394Z,22.78
2022-09-09T15:49:34.854Z,22.82
2022-09-09T15:52:25.205Z,22.61
2022-09-09T15:55:13.626Z,22.57
2022-09-09T15:58:02.697Z,22.52
2022-09-09T16:03:42.918Z,22.33
2022-09-09T16:09:11.625Z,22.04
2022-09-09T16:12:01.713Z,21.87
2022-09-09T16:14:49.756Z,21.71
2022-09-09T16:17:40.595Z,21.65
2022-09-09T16:20:33.857Z,21.51
2022-09-09T16:26:08.925Z,21.42
2022-09-09T16:31:46.188Z,21.18
2022-09-09T16:34:35.202Z,21.05
2022-09-09T16:37:23.177Z,20.91
2022-09-09T16:42:59.288Z,20.51
2022-09-09T16:45:48.203Z,20.52
2022-09-09T16:51:40.132Z,20.19
2022-09-09T16:54:29.942Z,20.04
2022-09-09T17:00:07.886Z,20.20
2022-09-09T17:02:58.611Z,20.14
2022-09-09T17:08:34.258Z,19.96
2022-09-09T17:11:23.198Z,20.03
2022-09-09T17:17:14.031Z,20.02
2022-09-09T17:19:51.270Z,20.04
2022-09-09T17:25:26.801Z,19.77
2022-09-09T17:30:57.925Z,19.13
2022-09-09T17:33:48.757Z,19.05
2022-09-09T17:39:23.147Z,18.76
2022-09-09T17:44:58.902Z,18.51
2022-09-09T17:50:36.228Z,18.31
2022-09-09T17:56:11.200Z,18.15
2022-09-09T18:02:09.682Z,17.90
2022-09-09T18:04:57.933Z,17.96
2022-09-09T18:07:45.986Z,17.90
2022-09-09T18:10:34.507Z,17.77
2022-09-09T18:13:22.848Z,17.97
2022-09-09T18:16:14.125Z,17.76
2022-09-09T18:19:08.268Z,17.69
2022-09-09T18:22:02.861Z,17.72
2022-09-09T18:24:51.786Z,17.66
2022-09-09T18:27:47.394Z,17.78
2022-09-09T18:33:27.987Z,17.68
2022-09-09T18:39:04.155Z,17.64
2022-09-09T18:41:58.989Z,17.64
2022-09-09T18:47:35.254Z,17.54
2022-09-09T18:53:04.981Z,17.72
2022-09-09T18:58:48.498Z,17.49
2022-09-09T19:01:36.974Z,17.41
2022-09-09T19:04:27.624Z,17.41
2022-09-09T19:07:16.098Z,17.50
2022-09-09T19:10:04.146Z,17.54
2022-09-09T19:12:52.417Z,17.40
2022-09-09T19:18:24.273Z,17.33
2022-09-09T19:21:13.343Z,17.23
2022-09-09T19:24:06.729Z,17.25
2022-09-09T19:26:57.794Z,17.13
2022-09-09T19:35:11.922Z,16.87
2022-09-09T19:40:43.923Z,16.96
2022-09-09T19:43:34.774Z,16.88
2022-09-09T19:46:22.891Z,16.88
2022-09-09T19:49:11.247Z,16.84
2022-09-09T19:54:51.569Z,16.95
2022-09-09T20:00:31.685Z,16.81
2022-09-09T20:03:21.580Z,16.82
2022-09-09T20:08:58.295Z,16.80
2022-09-09T20:14:39.801Z,16.74
2022-09-09T20:20:09.339Z,16.87
2022-09-09T20:22:57.382Z,16.69
2022-09-09T20:28:30.208Z,16.75
2022-09-09T20:34:09.711Z,16.66
2022-09-09T20:36:59.154Z,16.61
2022-09-09T20:42:28.855Z,16.62
2022-09-09T20:45:18.676Z,16.72
2022-09-09T20:50:54.021Z,16.85
2022-09-09T20:56:23.811Z,16.70
2022-09-09T21:02:02.352Z,16.61
2022-09-09T21:10:17.375Z,16.63
2022-09-09T21:13:05.478Z,16.52
2022-09-09T21:15:54.077Z,16.64
2022-09-09T21:21:30.084Z,16.57
2022-09-09T21:27:06.194Z,16.44
2022-09-09T21:32:40.762Z,16.46
2022-09-09T21:35:29.776Z,16.50
2022-09-09T21:41:05.717Z,16.48
2022-09-09T21:46:41.640Z,16.49
2022-09-09T21:49:29.846Z,16.39
2022-09-09T21:55:07.158Z,16.34
2022-09-09T21:57:55.668Z,16.32
2022-09-09T22:03:24.776Z,16.41
2022-09-09T22:06:17.754Z,16.46
2022-09-09T22:09:11.436Z,16.43
2022-09-09T22:14:48.575Z,16.30
2022-09-09T22:17:38.342Z,16.22
2022-09-09T22:23:08.284Z,16.37
2022-09-09T22:25:57.778Z,16.22
2022-09-09T22:31:31.503Z,16.35
2022-09-09T22:34:20.877Z,16.35
2022-09-09T22:39:57.568Z,15.90
2022-09-09T22:45:34.472Z,16.06
2022-09-09T22:48:22.527Z,15.89
2022-09-09T22:51:12.366Z,15.96
2022-09-09T22:54:03.297Z,15.89
2022-09-09T22:56:51.474Z,15.97
2022-09-09T23:02:21.629Z,16.02
2022-09-09T23:08:00.433Z,16.05
2022-09-09T23:13:30.310Z,15.88
2022-09-09T23:16:20.843Z,15.76
2022-09-09T23:19:10.882Z,15.75
2022-09-09T23:24:39.506Z,15.93
2022-09-09T23:27:29.911Z,15.89
2022-09-09T23:33:05.917Z,15.84
2022-09-09T23:36:01.307Z,15.71
2022-09-09T23:38:50.043Z,15.66
2022-09-09T23:44:18.847Z,15.86
2022-09-09T23:47:09.213Z,15.74
2022-09-09T23:52:44.502Z,15.94
2022-09-09T23:55:36.509Z,15.87
2022-09-09T23:58:24.694Z,15.82
